Time;durP1;ratioP1;P1;durP2;ratioP2;P2;SDS_P1;SDS_P2;PMS_P1;PMS_P2;Temp;Humidity;BMP_temperature;BMP_pressure;BME280_temperature;BME280_humidity;BME280_pressure;Samples;Min_cycle;Max_cycle;Signal;HPM_P1;HPM_P2
2022/07/23 00:00:18;;;;;;;3.25;1.80;;;;;;;28.16;39.96;99476.59;4374542;32;33252;-78
2022/07/23 00:02:47;;;;;;;3.37;1.98;;;;;;;28.34;39.51;99476.75;4374027;32;34074;-79
2022/07/23 00:05:19;;;;;;;3.22;1.73;;;;;;;28.19;39.56;99473.66;4372847;32;33502;-80
2022/07/23 00:07:48;;;;;;;8.30;2.10;;;;;;;28.25;39.23;99469.63;4377847;32;34401;-80
2022/07/23 00:10:18;;;;;;;3.90;2.00;;;;;;;28.06;39.25;99465.09;4376093;32;34735;-79
2022/07/23 00:12:48;;;;;;;3.70;2.20;;;;;;;28.09;39.22;99467.47;4372249;32;34664;-80
2022/07/23 00:15:23;;;;;;;4.60;2.20;;;;;;;27.93;39.16;99468.00;4372321;32;33342;-79
2022/07/23 00:17:52;;;;;;;6.72;2.00;;;;;;;27.90;38.98;99462.94;4372106;32;33805;-78
2022/07/23 00:20:24;;;;;;;6.47;2.53;;;;;;;27.98;38.85;99467.59;4372446;32;34810;-79
2022/07/23 00:22:56;;;;;;;3.25;1.67;;;;;;;27.92;38.66;99462.81;4377854;32;33919;-80
2022/07/23 00:25:25;;;;;;;4.20;1.90;;;;;;;27.85;38.88;99467.84;4371877;32;34147;-79
2022/07/23 00:28:05;;;;;;;3.92;2.03;;;;;;;27.85;38.71;99462.50;4372186;32;33882;-79
2022/07/23 00:30:38;;;;;;;2.55;1.33;;;;;;;27.90;38.78;99465.59;4358382;32;32205;-79
2022/07/23 00:33:09;;;;;;;4.93;2.25;;;;;;;27.95;38.73;99468.69;4371854;32;34338;-78
2022/07/23 00:35:40;;;;;;;3.75;1.77;;;;;;;27.86;38.46;99464.22;4372992;32;33627;-78
2022/07/23 00:38:10;;;;;;;4.50;1.87;;;;;;;27.91;38.81;99466.44;4378276;32;34589;-78
2022/07/23 00:40:40;;;;;;;4.60;2.12;;;;;;;27.84;38.13;99472.34;4380815;32;34116;-80
2022/07/23 00:43:13;;;;;;;4.95;2.08;;;;;;;27.79;38.47;99479.03;4388901;32;35126;-79
2022/07/23 00:45:42;;;;;;;3.42;1.92;;;;;;;27.91;38.38;99477.97;4389878;32;34203;-78
2022/07/23 00:48:12;;;;;;;2.92;1.52;;;;;;;28.13;37.60;99482.22;4392013;32;34055;-78
2022/07/23 00:50:42;;;;;;;3.00;1.67;;;;;;;28.12;38.54;99485.03;4393100;32;34836;-79
2022/07/23 00:53:13;;;;;;;3.87;1.85;;;;;;;28.13;38.50;99473.41;4389805;32;34532;-80
2022/07/23 00:55:42;;;;;;;3.28;1.80;;;;;;;28.22;38.28;99477.88;4373886;32;33193;-79
2022/07/23 00:58:16;;;;;;;3.47;2.03;;;;;;;28.03;38.37;99471.53;4372624;32;33819;-80
2022/07/23 01:00:45;;;;;;;4.25;2.25;;;;;;;27.87;38.74;99472.06;4372108;32;33963;-78
2022/07/23 01:03:18;;;;;;;3.75;2.10;;;;;;;27.99;38.08;99467.47;4372088;32;34091;-80
2022/07/23 01:05:47;;;;;;;3.25;1.90;;;;;;;28.00;37.11;99471.78;4377596;32;34338;-78
2022/07/23 01:08:19;;;;;;;3.60;1.90;;;;;;;27.87;38.53;99465.88;4371953;32;33933;-80
2022/07/23 01:10:52;;;;;;;4.40;1.83;;;;;;;27.98;37.95;99471.12;4372145;32;34095;-78
2022/07/23 01:13:27;;;;;;;4.00;1.85;;;;;;;28.00;37.73;99471.78;4371421;32;34106;-80
2022/07/23 01:15:59;;;;;;;3.67;1.98;;;;;;;28.01;38.00;99473.50;4371529;32;32728;-79
2022/07/23 01:18:28;;;;;;;3.58;1.60;;;;;;;28.09;38.48;99478.13;4371780;32;33723;-81
2022/07/23 01:20:58;;;;;;;3.95;1.80;;;;;;;28.13;38.21;99478.72;4377509;32;33862;-79
2022/07/23 01:23:32;;;;;;;3.92;1.62;;;;;;;28.00;38.32;99470.97;4371712;32;34110;-79
2022/07/23 01:26:01;;;;;;;5.12;2.20;;;;;;;27.93;38.40;99469.81;4372720;32;33695;-79
2022/07/23 01:28:39;;;;;;;2.83;1.50;;;;;;;27.95;38.55;99476.69;4375359;32;32303;-78
2022/07/23 01:31:12;;;;;;;2.60;1.50;;;;;;;28.04;38.49;99473.22;4375983;32;34057;-80
2022/07/23 01:33:41;;;;;;;4.28;2.03;;;;;;;27.79;39.31;99471.03;4376723;32;34161;-78
2022/07/23 01:36:16;;;;;;;3.22;1.60;;;;;;;28.01;38.72;99464.66;4377096;32;33560;-79
2022/07/23 01:38:51;;;;;;;3.58;1.90;;;;;;;27.86;39.26;99467.72;4375812;32;34495;-79
2022/07/23 01:41:21;;;;;;;4.75;2.10;;;;;;;27.71;39.56;99473.50;4385022;32;34083;-78
2022/07/23 01:43:51;;;;;;;4.72;2.03;;;;;;;27.71;39.53;99473.50;4386771;32;34789;-79
2022/07/23 01:46:20;;;;;;;6.50;2.10;;;;;;;27.54;39.92;99470.50;4386997;32;32724;-79
2022/07/23 01:48:52;;;;;;;3.05;1.73;;;;;;;27.59;39.29;99467.44;4382928;32;34547;-79
2022/07/23 01:51:22;;;;;;;4.15;2.47;;;;;;;27.41;39.83;99469.91;4371412;32;33931;-80
2022/07/23 01:53:55;;;;;;;3.65;1.83;;;;;;;27.18;40.27;99462.06;4374925;32;34052;-80
2022/07/23 01:56:24;;;;;;;3.35;2.08;;;;;;;27.28;40.22;99467.47;4387224;32;33325;-79
2022/07/23 01:58:53;;;;;;;3.85;2.20;;;;;;;27.14;40.50;99463.28;4388025;32;34383;-79
2022/07/23 02:01:25;;;;;;;5.35;2.37;;;;;;;27.23;40.21;99467.87;4388442;32;34553;-79
2022/07/23 02:03:58;;;;;;;4.85;2.47;;;;;;;27.26;40.38;99468.56;4393690;32;33725;-80
2022/07/23 02:06:26;;;;;;;4.50;2.15;;;;;;;27.01;40.71;99467.97;4388185;32;34386;-79
2022/07/23 02:08:57;;;;;;;4.70;2.97;;;;;;;27.10;40.90;99464.50;4388370;32;34494;-79
2022/07/23 02:11:26;;;;;;;;;;;;;;;27.08;40.43;99466.47;4388610;32;34399;-78
2022/07/23 02:13:58;;;;;;;5.07;2.35;;;;;;;27.05;40.62;99464.06;4389303;32;34145;-79
2022/07/23 02:16:27;;;;;;;5.62;2.65;;;;;;;26.87;40.72;99463.81;4393942;32;33551;-79
2022/07/23 02:19:02;;;;;;;3.47;1.90;;;;;;;26.94;41.35;99466.78;4392688;32;35044;-79
2022/07/23 02:21:31;;;;;;;;;;;;;;;26.92;40.93;99469.59;4391400;32;34671;-79
2022/07/23 02:24:07;;;;;;;4.43;2.45;;;;;;;26.89;41.02;99467.19;4389140;32;34398;-79
2022/07/23 02:26:37;;;;;;;5.07;2.22;;;;;;;26.76;41.03;99464.72;4389296;32;33700;-80
2022/07/23 02:29:14;;;;;;;3.65;2.05;;;;;;;26.90;40.64;99465.38;4387902;32;33920;-80
2022/07/23 02:31:47;;;;;;;3.85;2.10;;;;;;;26.52;40.06;99472.06;4393898;32;34615;-80
2022/07/23 02:34:16;;;;;;;3.33;2.20;;;;;;;26.59;39.88;99466.13;4390544;32;34068;-78
2022/07/23 02:36:47;;;;;;;3.58;1.90;;;;;;;26.74;40.20;99471.16;4374986;32;33510;-80
2022/07/23 02:39:18;;;;;;;4.20;1.92;;;;;;;26.67;40.69;99468.16;4373031;32;33428;-78
2022/07/23 02:41:50;;;;;;;3.73;2.23;;;;;;;26.67;41.07;99467.31;4384443;32;34661;-79
2022/07/23 02:44:19;;;;;;;4.45;2.17;;;;;;;26.67;40.24;99478.78;4382060;32;34814;-79
2022/07/23 02:46:52;;;;;;;3.08;1.83;;;;;;;26.70;40.18;99475.03;4391830;32;33480;-78
2022/07/23 02:49:21;;;;;;;4.70;2.37;;;;;;;26.62;40.66;99473.00;4382423;32;34561;-78
2022/07/23 02:51:50;;;;;;;3.17;1.90;;;;;;;26.54;41.05;99467.50;4390546;32;33802;-77
2022/07/23 02:54:20;;;;;;;4.45;2.10;;;;;;;26.52;41.58;99470.25;4387961;32;35511;-79
2022/07/23 02:56:52;;;;;;;6.00;2.45;;;;;;;26.38;42.09;99465.22;4386474;32;32742;-77
2022/07/23 02:59:20;;;;;;;;;;;;;;;26.45;42.05;99463.75;4390029;32;34494;-79
2022/07/23 03:01:55;;;;;;;3.72;2.03;;;;;;;26.44;42.01;99461.22;4387841;32;34762;-77
2022/07/23 03:04:24;;;;;;;5.75;2.37;;;;;;;26.29;42.39;99466.84;4387761;32;33689;-78
2022/07/23 03:06:56;;;;;;;3.97;2.08;;;;;;;26.42;41.99;99465.81;4387653;32;33117;-79
2022/07/23 03:09:27;;;;;;;5.47;2.47;;;;;;;26.40;41.68;99464.12;4388035;32;33713;-77
2022/07/23 03:11:57;;;;;;;5.27;2.73;;;;;;;26.22;42.25;99464.81;4389378;32;33967;-78
2022/07/23 03:14:27;;;;;;;4.12;2.08;;;;;;;26.25;41.56;99469.88;4388641;32;34087;-79
2022/07/23 03:17:00;;;;;;;4.03;1.98;;;;;;;26.33;40.76;99460.28;4388140;32;32762;-79
2022/07/23 03:19:29;;;;;;;5.28;2.67;;;;;;;26.39;40.62;99457.12;4388555;32;34611;-78
2022/07/23 03:22:00;;;;;;;6.78;1.95;;;;;;;26.38;40.39;99459.91;4387529;32;33812;-78
2022/07/23 03:27:34;;;;;;;6.03;2.30;;;;;;;26.36;40.33;99461.84;4311078;33;33386;-78
2022/07/23 03:30:10;;;;;;;3.90;2.03;;;;;;;26.28;40.41;99466.97;4316711;33;33677;-79
2022/07/23 03:32:39;;;;;;;4.43;2.20;;;;;;;26.45;39.90;99454.94;4311275;33;34623;-78
2022/07/23 03:35:09;;;;;;;4.60;2.35;;;;;;;26.43;40.62;99457.69;4311397;33;33991;-79
2022/07/23 03:37:46;;;;;;;4.43;2.12;;;;;;;26.38;40.67;99454.59;4311293;33;34295;-77
2022/07/23 03:40:18;;;;;;;4.87;2.22;;;;;;;26.39;40.54;99464.28;4311293;33;33499;-77
2022/07/23 03:42:52;;;;;;;4.10;1.83;;;;;;;26.46;40.82;99454.81;4310626;33;32982;-77
2022/07/23 03:45:21;;;;;;;4.93;2.33;;;;;;;26.48;40.49;99468.84;4316737;33;33835;-77
2022/07/23 03:47:53;;;;;;;4.95;2.35;;;;;;;26.48;40.63;99467.97;4311493;33;33476;-78
2022/07/23 03:50:23;;;;;;;5.60;2.17;;;;;;;26.60;40.26;99469.63;4309982;33;33777;-78
2022/07/23 03:52:55;;;;;;;4.00;2.00;;;;;;;26.58;40.39;99472.44;4311739;33;33921;-80
2022/07/23 03:55:26;;;;;;;4.57;2.12;;;;;;;26.63;40.46;99472.06;4311818;33;33594;-79
2022/07/23 03:57:57;;;;;;;4.00;2.30;;;;;;;26.63;40.35;99473.84;4313992;33;32361;-78
2022/07/23 04:00:26;;;;;;;3.28;2.05;;;;;;;26.75;40.02;99480.84;4316979;33;33691;-78
2022/07/23 04:02:58;;;;;;;3.97;1.92;;;;;;;26.63;40.71;99474.72;4335181;32;34684;-78
2022/07/23 04:05:28;;;;;;;7.15;2.47;;;;;;;26.74;40.27;99471.97;4378032;32;33947;-77
2022/07/23 04:07:58;;;;;;;4.37;2.20;;;;;;;26.96;39.40;99475.50;4373610;32;33640;-78
2022/07/23 04:10:28;;;;;;;4.65;2.45;;;;;;;27.07;39.79;99474.59;4373276;32;33972;-78
2022/07/23 04:13:00;;;;;;;3.00;1.90;;;;;;;26.96;40.98;99475.50;4378119;32;33768;-78
2022/07/23 04:15:29;;;;;;;4.47;2.17;;;;;;;26.82;41.26;99484.66;4372567;32;34816;-78
2022/07/23 04:18:04;;;;;;;3.90;2.17;;;;;;;26.97;41.21;99488.69;4372365;32;33638;-79
2022/07/23 04:20:33;;;;;;;4.15;1.98;;;;;;;27.04;39.92;99483.69;4372148;32;33803;-78
2022/07/23 04:23:12;;;;;;;4.95;2.28;;;;;;;27.05;41.00;99482.72;4372116;32;34853;-79
2022/07/23 04:25:50;;;;;;;3.40;1.90;;;;;;;26.96;41.24;99480.81;4372579;32;34072;-78
2022/07/23 04:28:19;;;;;;;3.28;1.87;;;;;;;27.00;42.07;99483.09;4378106;32;33508;-77
2022/07/23 04:30:51;;;;;;;4.70;2.40;;;;;;;27.08;41.53;99478.94;4372230;32;33785;-78
2022/07/23 04:33:21;;;;;;;4.90;2.62;;;;;;;27.19;40.48;99484.22;4372359;32;33156;-79
2022/07/23 04:35:57;;;;;;;4.40;2.30;;;;;;;27.14;41.40;99483.75;4372157;32;34896;-79
2022/07/23 04:38:29;;;;;;;3.85;2.35;;;;;;;27.19;39.73;99486.91;4372250;32;34304;-80
2022/07/23 04:41:00;;;;;;;6.93;2.03;;;;;;;27.11;39.78;99487.53;4372848;32;34537;-79
2022/07/23 04:43:33;;;;;;;6.82;2.47;;;;;;;26.93;40.50;99484.59;4377617;32;33239;-77
2022/07/23 04:46:02;;;;;;;4.07;2.08;;;;;;;27.08;40.62;99498.41;4374789;32;34812;-79
2022/07/23 04:48:34;;;;;;;5.15;2.70;;;;;;;26.88;41.04;99496.59;4374541;32;34619;-79
2022/07/23 04:51:05;;;;;;;3.08;1.70;;;;;;;26.91;41.69;99494.53;4376254;32;33799;-78
2022/07/23 04:53:35;;;;;;;2.97;2.00;;;;;;;27.12;41.67;99496.34;4378192;32;34970;-78
2022/07/23 04:56:05;;;;;;;4.80;2.20;;;;;;;27.43;41.72;99494.59;4392513;32;34152;-77
2022/07/23 04:58:36;;;;;;;3.22;2.00;;;;;;;27.59;40.60;99486.09;4391563;32;33685;-77
2022/07/23 05:01:05;;;;;;;3.90;1.95;;;;;;;28.06;40.89;99489.94;4388110;32;33160;-80
2022/07/23 05:03:35;;;;;;;7.07;2.40;;;;;;;28.91;39.40;99492.94;4387046;32;33662;-80
2022/07/23 05:06:05;;;;;;;2.95;1.60;;;;;;;29.81;37.12;99496.94;4387036;32;34589;-78
2022/07/23 05:08:41;;;;;;;3.85;1.90;;;;;;;30.48;35.29;99489.50;4386671;32;34274;-79
2022/07/23 05:11:12;;;;;;;5.72;2.15;;;;;;;31.08;32.63;99491.53;4392313;32;33931;-79
2022/07/23 05:13:43;;;;;;;5.20;2.40;;;;;;;31.67;33.74;99489.87;4386876;32;34791;-79
2022/07/23 05:16:12;;;;;;;2.80;1.62;;;;;;;32.17;30.00;99485.53;4386835;32;33908;-80
2022/07/23 05:18:42;;;;;;;4.47;1.83;;;;;;;32.45;31.03;99488.78;4387173;32;34656;-78
2022/07/23 05:21:11;;;;;;;3.55;1.62;;;;;;;32.67;31.40;99489.19;4389605;32;34608;-79
2022/07/23 05:23:43;;;;;;;4.03;1.62;;;;;;;32.83;30.81;99497.22;4392311;32;34748;-79
2022/07/23 05:26:13;;;;;;;4.12;2.37;;;;;;;32.84;31.45;99488.16;4390795;32;33564;-80
2022/07/23 05:28:45;;;;;;;4.60;2.12;;;;;;;33.02;30.75;99497.87;4388104;32;32791;-78
2022/07/23 05:31:18;;;;;;;4.97;1.73;;;;;;;33.05;29.82;99505.63;4390345;32;34311;-79
2022/07/23 05:33:52;;;;;;;5.43;1.90;;;;;;;33.10;30.22;99505.94;4382993;32;33791;-79
2022/07/23 05:36:29;;;;;;;3.85;1.73;;;;;;;33.01;31.10;99497.03;4378070;32;34058;-78
2022/07/23 05:38:59;;;;;;;2.83;1.55;;;;;;;33.04;32.41;99496.72;4378733;32;33713;-79
2022/07/23 05:41:31;;;;;;;5.43;2.30;;;;;;;33.04;32.26;99496.72;4378685;32;34430;-79
2022/07/23 05:44:01;;;;;;;3.45;1.98;;;;;;;33.04;31.97;99499.41;4375056;32;37042;-79
2022/07/23 05:46:33;;;;;;;10.90;2.20;;;;;;;33.13;31.95;99500.25;4374934;32;34040;-79
2022/07/23 05:49:02;;;;;;;4.12;2.20;;;;;;;33.23;30.88;99498.22;4373409;32;33396;-79
2022/07/23 05:51:39;;;;;;;12.50;2.67;;;;;;;33.14;31.36;99505.44;4376624;32;33869;-80
2022/07/23 05:54:11;;;;;;;3.15;2.12;;;;;;;33.38;31.13;99501.03;4393400;32;34338;-81
2022/07/23 05:56:44;;;;;;;5.78;2.20;;;;;;;33.39;30.80;99502.69;4388062;32;33747;-79
2022/07/23 05:59:14;;;;;;;4.22;1.75;;;;;;;33.55;30.70;99502.66;4389534;32;32670;-80
2022/07/23 06:01:43;;;;;;;5.25;2.90;;;;;;;33.69;31.09;99492.22;4388237;32;36084;-80
2022/07/23 06:04:18;;;;;;;2.65;1.75;;;;;;;33.73;30.04;99498.91;4387919;32;33778;-80
2022/07/23 06:06:50;;;;;;;3.05;1.77;;;;;;;33.70;29.97;99497.41;4387875;32;33796;-79
2022/07/23 06:09:19;;;;;;;5.45;2.10;;;;;;;33.91;28.98;99494.12;4393664;32;33687;-79
2022/07/23 06:11:49;;;;;;;3.40;1.90;;;;;;;33.64;28.30;99491.91;4387731;32;34775;-79
2022/07/23 06:14:20;;;;;;;5.30;2.25;;;;;;;33.59;28.23;99484.38;4388103;32;33867;-80
2022/07/23 06:16:50;;;;;;;7.72;2.03;;;;;;;33.58;27.95;99483.50;4389253;32;34804;-80
2022/07/23 06:19:22;;;;;;;5.40;2.30;;;;;;;33.07;28.77;99479.44;4390838;32;34426;-78
2022/07/23 06:21:51;;;;;;;3.30;1.77;;;;;;;32.97;28.26;99479.56;4393635;32;33956;-80
2022/07/23 06:24:22;;;;;;;3.28;1.90;;;;;;;32.88;28.25;99476.03;4389943;32;34655;-79
2022/07/23 06:26:53;;;;;;;3.28;2.15;;;;;;;32.47;29.33;99472.50;4389185;32;34199;-78
2022/07/23 06:29:22;;;;;;;2.70;1.65;;;;;;;32.39;29.29;99470.66;4387952;32;32411;-79
2022/07/23 06:31:52;;;;;;;;;;;;;;;31.85;29.53;99480.91;4389821;32;33632;-80
2022/07/23 06:34:27;;;;;;;3.85;1.67;;;;;;;32.22;29.38;99480.53;4389028;32;34058;-81
2022/07/23 06:36:56;;;;;;;2.60;1.67;;;;;;;32.32;28.85;99475.00;4392918;32;34599;-80
2022/07/23 06:39:27;;;;;;;3.42;2.00;;;;;;;32.13;29.33;99475.31;4388010;32;34616;-80
2022/07/23 06:41:57;;;;;;;4.43;2.10;;;;;;;32.01;29.77;99464.88;4387704;32;34756;-81
2022/07/23 06:44:36;;;;;;;5.72;2.33;;;;;;;32.31;27.94;99471.47;4388476;32;33751;-80
2022/07/23 06:47:11;;;;;;;3.40;1.92;;;;;;;32.09;28.70;99469.44;4387979;32;33607;-81
2022/07/23 06:49:40;;;;;;;4.35;1.70;;;;;;;32.24;29.41;99469.63;4376589;32;33703;-80
2022/07/23 06:52:13;;;;;;;5.67;2.30;;;;;;;32.09;29.66;99472.94;4384022;32;34639;-80
2022/07/23 06:54:42;;;;;;;6.75;2.37;;;;;;;32.23;29.63;99474.13;4387768;32;34400;-79
2022/07/23 06:57:15;;;;;;;5.05;1.77;;;;;;;31.97;30.57;99476.09;4387680;32;34166;-81
2022/07/23 06:59:44;;;;;;;5.53;2.33;;;;;;;32.35;29.57;99476.50;4388018;32;33438;-78
2022/07/23 07:02:13;;;;;;;4.50;2.25;;;;;;;32.14;30.08;99475.16;4388014;32;34551;-79
2022/07/23 07:04:43;;;;;;;3.05;1.75;;;;;;;32.45;30.02;99471.81;4393809;32;33998;-79
2022/07/23 07:07:16;;;;;;;3.45;1.83;;;;;;;32.47;29.84;99467.97;4387716;32;34515;-80
2022/07/23 07:09:45;;;;;;;4.00;2.30;;;;;;;32.72;29.05;99460.78;4387830;32;33366;-79
2022/07/23 07:12:19;;;;;;;5.65;2.03;;;;;;;32.70;28.90;99462.81;4388096;32;34260;-79
2022/07/23 07:14:48;;;;;;;3.03;1.90;;;;;;;32.77;29.13;99462.16;4388696;32;34114;-80
2022/07/23 07:17:20;;;;;;;5.15;1.95;;;;;;;32.57;29.40;99461.63;4390162;32;34201;-80
2022/07/23 07:19:49;;;;;;;5.53;2.42;;;;;;;32.87;29.35;99460.13;4393294;32;33144;-81
2022/07/23 07:22:21;;;;;;;4.05;2.00;;;;;;;32.53;29.48;99458.44;4388772;32;33733;-80
2022/07/23 07:24:50;;;;;;;3.80;1.73;;;;;;;32.57;29.24;99451.72;4387778;32;34920;-80
2022/07/23 07:27:22;;;;;;;4.37;2.37;;;;;;;32.79;29.16;99454.72;4387663;32;34581;-81
2022/07/23 07:29:51;;;;;;;3.67;1.73;;;;;;;33.23;28.33;99455.19;4387925;32;34459;-79
2022/07/23 07:32:23;;;;;;;4.05;1.80;;;;;;;33.30;28.54;99453.50;4393102;32;34568;-79
2022/07/23 07:35:15;;;;;;;3.50;1.75;;;;;;;33.65;27.86;99464.00;4393455;32;34283;-79
2022/07/23 07:37:49;;;;;;;9.02;2.65;;;;;;;33.81;27.62;99458.53;4383983;32;34047;-79
2022/07/23 07:40:20;;;;;;;4.62;2.58;;;;;;;34.18;27.49;99452.44;4372469;32;33276;-81
2022/07/23 07:42:53;;;;;;;3.33;1.90;;;;;;;34.09;28.00;99453.50;4372100;32;34228;-81
2022/07/23 07:45:22;;;;;;;4.28;2.08;;;;;;;34.12;28.01;99449.63;4372735;32;34083;-80
2022/07/23 07:47:54;;;;;;;3.95;2.05;;;;;;;34.25;27.17;99447.19;4376862;32;34110;-80
2022/07/23 07:50:23;;;;;;;2.37;1.48;;;;;;;34.54;26.83;99449.16;4377384;32;33327;-81
2022/07/23 07:52:54;;;;;;;7.10;2.12;;;;;;;34.89;25.82;99449.53;4382447;32;33909;-81
2022/07/23 07:55:23;;;;;;;3.70;1.92;;;;;;;34.99;26.95;99455.53;4387202;32;33652;-80
2022/07/23 07:57:55;;;;;;;3.60;1.70;;;;;;;34.96;27.11;99446.94;4388485;32;34025;-80
2022/07/23 08:00:24;;;;;;;3.12;1.65;;;;;;;35.23;27.14;99451.75;4388837;32;34240;-80
2022/07/23 08:02:56;;;;;;;5.97;1.75;;;;;;;35.41;25.71;99451.38;4393504;32;34636;-81
2022/07/23 08:05:28;;;;;;;3.92;2.17;;;;;;;35.45;25.47;99449.16;4388878;32;34630;-81
2022/07/23 08:08:06;;;;;;;3.62;2.17;;;;;;;35.55;24.92;99446.16;4389387;32;34572;-79
2022/07/23 08:10:35;;;;;;;2.80;2.20;;;;;;;35.59;25.43;99451.00;4388948;32;33351;-81
2022/07/23 08:13:08;;;;;;;3.83;1.98;;;;;;;35.77;25.01;99447.09;4387990;32;33639;-81
2022/07/23 08:15:42;;;;;;;4.10;1.55;;;;;;;35.79;25.94;99450.44;4387913;32;36510;-80
2022/07/23 08:18:11;;;;;;;4.10;1.98;;;;;;;35.79;25.71;99445.88;4392873;32;34031;-81
2022/07/23 08:20:42;;;;;;;3.75;1.90;;;;;;;35.87;24.90;99448.44;4387750;32;33241;-80
2022/07/23 08:23:10;;;;;;;4.25;1.85;;;;;;;35.95;24.12;99446.66;4376753;32;33560;-81
2022/07/23 08:25:42;;;;;;;3.08;1.55;;;;;;;36.06;23.96;99443.47;4372298;32;33649;-80
2022/07/23 08:28:14;;;;;;;2.37;1.48;;;;;;;36.21;22.84;99443.44;4375197;32;34120;-79
2022/07/23 08:30:46;;;;;;;2.65;1.40;;;;;;;36.06;23.20;99448.88;4378213;32;33647;-79
2022/07/23 08:33:17;;;;;;;3.35;1.70;;;;;;;35.99;23.92;99448.78;4373392;32;33389;-78
2022/07/23 08:36:07;;;;;;;3.42;1.45;;;;;;;36.08;23.13;99454.94;4372189;32;33724;-78
2022/07/23 08:38:35;;;;;;;5.80;2.10;;;;;;;36.35;23.35;99458.75;4371026;32;33761;-81
2022/07/23 08:41:11;;;;;;;2.50;1.37;;;;;;;36.57;23.22;99456.06;4372525;32;33627;-80
2022/07/23 08:43:41;;;;;;;3.58;1.60;;;;;;;36.52;23.46;99454.75;4372714;32;34366;-79
2022/07/23 08:46:15;;;;;;;3.03;1.73;;;;;;;36.78;23.87;99453.34;4376093;32;34799;-80
2022/07/23 08:48:43;;;;;;;4.50;1.45;;;;;;;36.86;23.77;99452.37;4377692;32;33837;-80
2022/07/23 08:51:13;;;;;;;5.25;1.83;;;;;;;36.91;22.37;99453.44;4374093;32;34198;-80
2022/07/23 08:53:42;;;;;;;4.47;1.90;;;;;;;36.89;22.47;99460.06;4379717;32;33460;-80
2022/07/23 08:56:14;;;;;;;2.80;1.45;;;;;;;36.84;22.24;99449.84;4392818;32;34013;-78
2022/07/23 08:58:44;;;;;;;4.00;1.33;;;;;;;36.81;23.49;99450.25;4390584;32;34253;-78
2022/07/23 09:01:16;;;;;;;4.37;1.52;;;;;;;36.86;22.38;99445.09;4392735;32;33644;-80
2022/07/23 09:03:45;;;;;;;3.35;1.50;;;;;;;36.89;22.40;99438.44;4388355;32;34871;-78
2022/07/23 09:06:17;;;;;;;5.03;1.97;;;;;;;37.11;23.08;99439.25;4386819;32;34666;-81
2022/07/23 09:08:47;;;;;;;4.00;2.00;;;;;;;37.00;22.45;99445.19;4386965;32;34811;-79
2022/07/23 09:11:18;;;;;;;4.87;1.53;;;;;;;37.15;22.03;99445.94;4386788;32;33662;-79
2022/07/23 09:13:50;;;;;;;5.62;2.22;;;;;;;36.97;21.46;99448.25;4381199;32;33809;-79
2022/07/23 09:16:25;;;;;;;5.18;2.35;;;;;;;37.12;21.63;99440.94;4377792;32;33100;-79
2022/07/23 09:18:55;;;;;;;2.83;1.45;;;;;;;37.02;22.17;99441.25;4371590;32;33932;-79
2022/07/23 09:21:35;;;;;;;3.20;1.62;;;;;;;37.14;22.28;99447.81;4371443;32;33293;-79
2022/07/23 09:24:09;;;;;;;4.18;1.40;;;;;;;37.30;22.83;99446.63;4371958;32;34116;-78
2022/07/23 09:26:49;;;;;;;3.28;1.37;;;;;;;37.46;22.52;99447.34;4371583;32;33637;-80
2022/07/23 09:29:24;;;;;;;3.33;1.90;;;;;;;37.43;21.63;99447.72;4371420;32;33996;-80
2022/07/23 09:31:57;;;;;;;3.80;1.60;;;;;;;37.39;20.92;99435.66;4376961;32;33346;-79
2022/07/23 09:34:32;;;;;;;2.87;1.40;;;;;;;37.66;21.66;99437.47;4372658;32;34126;-80
2022/07/23 09:37:13;;;;;;;3.92;1.70;;;;;;;37.88;21.76;99438.16;4375515;32;34756;-80
2022/07/23 09:39:44;;;;;;;2.55;1.60;;;;;;;37.92;21.05;99441.31;4375870;32;34693;-81
2022/07/23 09:42:16;;;;;;;;;;;;;;;37.73;21.03;99441.03;4376854;32;33522;-80
2022/07/23 09:44:47;;;;;;;3.50;1.85;;;;;;;37.81;21.18;99433.78;4376799;32;34610;-80
2022/07/23 09:47:22;;;;;;;3.50;1.60;;;;;;;37.90;21.91;99435.25;4376860;32;34223;-79
2022/07/23 09:50:01;;;;;;;3.37;1.60;;;;;;;37.75;20.59;99436.25;4372730;32;34084;-78
2022/07/23 09:52:30;;;;;;;6.18;2.05;;;;;;;37.89;21.22;99437.16;4379857;32;33661;-79
2022/07/23 09:55:07;;;;;;;4.57;2.03;;;;;;;37.71;21.64;99426.88;4386447;32;33921;-80
2022/07/23 09:57:36;;;;;;;4.25;2.28;;;;;;;38.13;21.53;99419.53;4386766;32;33963;-80
2022/07/23 10:00:11;;;;;;;3.20;1.85;;;;;;;38.16;20.77;99413.69;4386138;32;34738;-78
2022/07/23 10:02:43;;;;;;;7.12;2.03;;;;;;;38.29;20.91;99420.16;4392017;32;33424;-80
2022/07/23 10:05:23;;;;;;;3.78;1.73;;;;;;;38.25;20.59;99413.47;4391132;32;33243;-79
2022/07/23 10:07:53;;;;;;;3.05;1.50;;;;;;;38.62;20.94;99417.50;4386259;32;33975;-80
2022/07/23 10:10:31;;;;;;;3.03;1.48;;;;;;;38.38;19.61;99411.63;4385968;32;33659;-80
2022/07/23 10:15:52;;;;;;;3.83;1.90;;;;;;;38.20;19.73;99408.69;4371881;32;33841;-80
2022/07/23 10:18:21;;;;;;;3.75;2.00;;;;;;;38.46;20.81;99405.19;4372370;32;34015;-78
2022/07/23 10:20:52;;;;;;;3.47;1.95;;;;;;;38.70;21.12;99402.88;4378766;32;36249;-80
2022/07/23 10:23:26;;;;;;;4.78;1.85;;;;;;;38.90;20.08;99405.56;4374841;32;34237;-79
2022/07/23 10:26:01;;;;;;;6.10;1.95;;;;;;;38.39;20.34;99374.50;4373060;32;33864;-80
2022/07/23 10:29:08;;;;;;;3.37;1.65;;;;;;;38.84;20.81;99401.81;4375475;32;33497;-78
2022/07/23 10:31:51;;;;;;;4.10;1.20;;;;;;;39.10;18.62;99402.81;4311609;33;34114;-79
2022/07/23 10:34:39;;;;;;;2.75;1.37;;;;;;;39.01;18.77;99400.34;4311404;33;34356;-80
2022/07/23 10:37:15;;;;;;;;;;;;;;;39.16;19.16;99401.97;4312963;33;34260;-80
2022/07/23 10:40:10;;;;;;;2.85;1.65;;;;;;;39.15;18.79;99403.88;4311977;33;33868;-79
2022/07/23 10:42:40;;;;;;;2.28;1.15;;;;;;;39.21;18.64;99391.31;4316797;33;33813;-79
2022/07/23 10:45:26;;;;;;;4.47;1.77;;;;;;;39.23;18.34;99390.06;4314012;33;34104;-79
2022/07/23 10:48:15;;;;;;;3.00;1.48;;;;;;;39.31;18.21;99385.44;4311582;33;34577;-80
2022/07/23 10:51:07;;;;;;;2.87;1.35;;;;;;;39.57;18.58;99384.53;4312366;33;33673;-80
2022/07/23 10:53:56;;;;;;;1.48;1.12;;;;;;;39.88;17.80;99376.44;4325970;33;34677;-80
2022/07/23 10:56:51;;;;;;;3.12;1.65;;;;;;;40.09;17.50;99372.53;4326174;33;33048;-80
2022/07/23 10:59:20;;;;;;;2.50;1.55;;;;;;;40.20;16.48;99375.59;4326009;33;33857;-81
2022/07/23 11:01:50;;;;;;;2.83;1.62;;;;;;;40.35;16.96;99364.41;4331203;32;34338;-80
2022/07/23 11:07:23;;;;;;;15.93;2.10;;;;;;;40.86;15.89;99368.75;4358276;32;33497;-81
2022/07/23 11:09:59;;;;;;;2.30;1.30;;;;;;;40.92;14.83;99359.69;4363429;32;33883;-81
2022/07/23 11:12:39;;;;;;;3.67;1.95;;;;;;;40.95;15.52;99361.97;4358060;32;34099;-80
2022/07/23 11:15:10;;;;;;;3.92;1.73;;;;;;;41.21;16.26;99349.97;4357593;32;33671;-79
2022/07/23 11:17:40;;;;;;;3.12;1.48;;;;;;;41.22;15.36;99357.06;4359388;32;34242;-78
2022/07/23 11:20:24;;;;;;;2.97;1.60;;;;;;;41.33;15.77;99355.47;4358243;32;34542;-80
2022/07/23 11:22:56;;;;;;;2.40;1.60;;;;;;;41.28;15.89;99352.63;4358703;32;33817;-79
2022/07/23 11:25:35;;;;;;;7.00;1.80;;;;;;;41.27;16.57;99348.22;4363275;32;34815;-79
2022/07/23 11:28:15;;;;;;;3.90;1.80;;;;;;;41.54;16.78;99346.03;4361830;32;33424;-79
2022/07/23 11:30:48;;;;;;;2.67;1.60;;;;;;;41.65;16.11;99339.75;4357272;32;33837;-81
2022/07/23 11:33:19;;;;;;;2.87;1.67;;;;;;;41.46;15.74;99340.84;4357908;32;34839;-81
2022/07/23 11:36:02;;;;;;;3.25;1.60;;;;;;;41.56;16.52;99346.59;4359614;32;33868;-79
2022/07/23 11:38:33;;;;;;;4.47;1.98;;;;;;;41.73;16.08;99344.03;4357824;32;33309;-79
2022/07/23 11:41:02;;;;;;;3.15;1.77;;;;;;;41.84;14.81;99332.34;4358736;32;33860;-79
2022/07/23 11:43:34;;;;;;;5.45;1.75;;;;;;;41.95;15.31;99331.59;4370595;32;33831;-80
2022/07/23 11:46:03;;;;;;;3.62;1.65;;;;;;;42.18;16.31;99330.78;4372308;32;34262;-79
2022/07/23 11:48:32;;;;;;;4.22;1.77;;;;;;;42.03;15.94;99327.69;4372770;32;33687;-80
2022/07/23 11:51:13;;;;;;;3.00;1.77;;;;;;;42.18;15.31;99324.50;4372351;32;33824;-79
2022/07/23 11:53:46;;;;;;;6.50;1.95;;;;;;;42.05;15.22;99311.12;4375350;32;33990;-80
2022/07/23 11:56:18;;;;;;;3.50;1.77;;;;;;;42.06;15.82;99316.31;4392957;32;34234;-81
2022/07/23 11:58:58;;;;;;;3.10;1.77;;;;;;;41.93;14.67;99309.16;4382471;32;33351;-79
2022/07/23 12:01:28;;;;;;;4.82;1.80;;;;;;;42.37;14.80;99312.47;4372673;32;33895;-79
2022/07/23 12:04:01;;;;;;;2.90;1.73;;;;;;;42.15;15.19;99298.56;4373099;32;34838;-81
2022/07/23 12:06:47;;;;;;;3.55;1.42;;;;;;;42.31;15.37;99298.91;4373279;32;34047;-80